Airfield :
LOGIN :

Register | Disclaimer

   EN    FR    IT 

 










Legend :    VFR   Marginal VFR   IFR   Intensive IFR   Very Intensive IFR
Visi :
Ceiling :
>= 8 km
>= 3000ft
5 to 8 km
1000 to 3000 ft
1500m to 5 km
500 to 1000 ft
800 to 1500m
200 to 500 ft
< 800m
< 200 ft
Symbols :   Thunderstorms  Fog  Heavy snow  Heavy precipitations  Wind > 20 kt
SIGMETs :     Misc.  Thunderstorms  Icing  Turbulence  Mountain Waves  Volcanic Ashes







- Airport Elevation : 87 ft
- IATA code : FSC
- Download approach charts


LFKF - Figari

CURRENT METAR :
  • 211900Z AUTO 06010KT 9999 -RA OVC021 24/20 Q1018 TEMPO 07017G27KT 4000 SHRA SCT010 BKN020 FEW035TCU

EXPIRED METARs :
  • 211830Z AUTO 05013KT 9999 OVC021 24/20 Q1017 TEMPO 07017G27KT 4000 SHRA SCT010 BKN020 FEW035TCU
  • 211800Z AUTO 05014KT 020V080 9999 BKN021 OVC027 24/20 Q1017 TEMPO 07017G27KT TSRA BKN020 FEW030CB
  • 211730Z AUTO 06011KT 030V090 9999 -RA BKN020 OVC031 23/20 Q1017 TEMPO 07017G27KT TSRA BKN020 FEW030CB
  • 211700Z AUTO 05013KT 030V100 9999 -RADZ OVC020 23/20 Q1017 TEMPO 07017G27KT TSRA BKN020 FEW030CB
  • 211630Z AUTO 06011KT 9999 -RADZ OVC023 24/19 Q1017 TEMPO 07017G27KT TSRA BKN020 FEW030CB
  • 211600Z AUTO 06012KT 9999 BKN025 OVC033 24/19 Q1018 TEMPO 07017G27KT TSRA BKN020 FEW030CB

TAF TAF LFKF
Valid from the 21 at 15:00 until the 22 at 15:00 UTC


211400Z 2115/2215 06012KT 9999 SCT030 BKN050
TEMPO 2115/2208 07017G27KT
PROB30
TEMPO 2115/2120 TSRA BKN020 FEW030CB
TEMPO 2120/2208 4000 SHRA SCT010 BKN020 FEW035TCU
PROB40
TEMPO 2203/2207 2000 TSRA SCT008 BKN015 SCT035CB
PROB30
TEMPO 2212/2215 TSRA SCT040CB
No reported NOTAMs for that airfield.



MET'MAP, your aeronautical weather chart ! - Copyright ORBIFLY December 2007 - Disclaimer

ORBIFLY MET'MAP TEAM :

Programming & Development : Alexandra Zaïnal
Concept & Development : Baudouin d'Aumeries
Co-Development & Prog : Marc-Olivier Méhu
Technical & hardware support : Manuel Goepfert

Contact : metmap@orbifly.com




SOURCES & CREDITS :

   NOAA